Time;durP1;ratioP1;P1;durP2;ratioP2;P2;SDS_P1;SDS_P2;PMS_P1;PMS_P2;Temp;Humidity;BMP_temperature;BMP_pressure;BME280_temperature;BME280_humidity;BME280_pressure;Samples;Min_cycle;Max_cycle;Signal;HPM_P1;HPM_P2
2022/07/29 00:00:50;;;;;;;5.47;2.60;;;;;;;38.98;29.29;100416.59;4900408;29;20695;-75
2022/07/29 00:03:20;;;;;;;5.03;2.70;;;;;;;39.01;28.86;100407.34;4892582;29;20562;-75
2022/07/29 00:05:48;;;;;;;3.17;2.90;;;;;;;39.03;28.80;100416.16;4899513;29;20068;-75
2022/07/29 00:08:17;;;;;;;3.38;2.75;;;;;;;39.04;28.27;100407.06;4899653;29;20056;-74
2022/07/29 00:10:46;;;;;;;4.68;2.90;;;;;;;39.08;29.11;100411.16;4902895;29;20048;-73
2022/07/29 00:13:14;;;;;;;4.55;2.83;;;;;;;39.08;29.21;100400.34;4883892;29;20068;-73
2022/07/29 00:15:43;;;;;;;2.63;2.42;;;;;;;39.06;29.14;100405.03;4886939;29;20139;-73
2022/07/29 00:18:11;;;;;;;3.13;2.58;;;;;;;39.03;29.10;100405.34;4885492;29;20049;-73
2022/07/29 00:20:42;;;;;;;3.25;2.25;;;;;;;39.01;29.67;100399.22;4888492;29;20049;-74
2022/07/29 00:23:10;;;;;;;6.67;2.80;;;;;;;38.97;29.14;100399.53;4888266;29;20052;-73
2022/07/29 00:25:39;;;;;;;5.25;2.70;;;;;;;38.92;30.17;100398.22;4856336;29;20068;-74
2022/07/29 00:28:07;;;;;;;4.55;2.58;;;;;;;38.90;28.53;100397.53;4865669;29;20061;-73
2022/07/29 00:30:36;;;;;;;3.10;2.70;;;;;;;38.89;30.28;100396.66;4851346;29;20144;-73
2022/07/29 00:33:04;;;;;;;6.97;2.95;;;;;;;38.90;30.95;100403.78;4860224;29;20536;-73
2022/07/29 00:35:43;;;;;;;4.65;2.53;;;;;;;38.90;30.04;100395.69;4856111;29;20122;-74
2022/07/29 00:38:14;;;;;;;3.72;2.75;;;;;;;38.90;29.07;100390.28;4855633;29;20153;-73
2022/07/29 00:40:43;;;;;;;4.97;2.60;;;;;;;38.90;29.89;100384.88;4851195;29;20148;-75
2022/07/29 00:43:12;;;;;;;4.88;2.60;;;;;;;38.96;30.00;100387.00;4844474;29;20100;-73
2022/07/29 00:45:43;;;;;;;5.88;2.88;;;;;;;39.03;28.69;100391.81;4847237;29;20045;-73
2022/07/29 00:48:11;;;;;;;3.72;2.72;;;;;;;39.04;28.50;100388.13;4855638;29;20088;-72
2022/07/29 00:50:40;;;;;;;8.18;2.72;;;;;;;39.04;27.96;100388.13;4852545;29;20522;-73
2022/07/29 00:53:09;;;;;;;4.53;2.85;;;;;;;39.06;28.46;100384.28;4854039;29;20574;-72
2022/07/29 00:55:39;;;;;;;5.07;2.60;;;;;;;39.08;27.81;100387.69;4850505;29;20059;-72
2022/07/29 00:58:08;;;;;;;3.57;2.43;;;;;;;39.07;27.50;100385.97;4862394;29;20057;-72
2022/07/29 01:00:37;;;;;;;3.55;2.72;;;;;;;39.11;28.23;100389.22;4856790;29;20515;-73
2022/07/29 01:03:05;;;;;;;3.20;2.80;;;;;;;39.11;27.66;100383.81;4862071;29;20416;-74
2022/07/29 01:05:36;;;;;;;5.35;2.88;;;;;;;39.08;29.81;100381.38;4872961;29;20054;-74
2022/07/29 01:08:05;;;;;;;5.83;2.70;;;;;;;39.06;32.32;100383.38;4862897;29;20093;-74
2022/07/29 01:10:34;;;;;;;8.02;3.00;;;;;;;38.99;29.69;100372.34;4870533;29;20045;-74
2022/07/29 01:13:06;;;;;;;2.60;2.35;;;;;;;38.94;31.59;100377.31;4855743;29;20045;-75
2022/07/29 01:15:43;;;;;;;4.57;3.08;;;;;;;38.91;29.12;100373.03;4854544;29;20056;-74
2022/07/29 01:18:18;;;;;;;5.07;2.88;;;;;;;38.88;28.36;100373.34;4855404;29;20113;-73
2022/07/29 01:21:09;;;;;;;4.95;2.88;;;;;;;38.83;30.59;100378.34;4858558;29;20508;-73
2022/07/29 01:24:13;;;;;;;3.85;2.63;;;;;;;38.77;30.96;100373.50;4860950;28;20052;-73
2022/07/29 01:26:48;;;;;;;4.55;2.30;;;;;;;38.71;31.45;100374.94;4890338;29;20052;-73
2022/07/29 01:29:28;;;;;;;4.50;2.85;;;;;;;38.66;30.46;100370.97;4884768;29;20060;-74
2022/07/29 01:32:00;;;;;;;5.30;2.60;;;;;;;38.58;31.06;100370.84;4887958;29;20049;-74
2022/07/29 01:34:36;;;;;;;3.78;2.78;;;;;;;38.54;32.27;100370.31;4883922;29;20053;-74
2022/07/29 01:37:13;;;;;;;4.53;2.70;;;;;;;38.48;33.32;100377.13;4886574;29;20060;-73
2022/07/29 01:39:43;;;;;;;8.40;2.83;;;;;;;38.44;32.14;100375.69;4899950;29;20057;-73
2022/07/29 01:42:21;;;;;;;5.27;3.13;;;;;;;38.41;31.82;100365.16;4893431;29;20052;-74
2022/07/29 01:44:59;;;;;;;4.28;2.97;;;;;;;38.39;32.01;100366.31;4894238;29;20460;-74
2022/07/29 01:47:34;;;;;;;3.00;2.28;;;;;;;38.37;31.12;100365.59;4894556;29;20056;-75
2022/07/29 01:50:07;;;;;;;5.68;2.90;;;;;;;38.34;31.10;100358.63;4900796;29;20446;-74
2022/07/29 01:52:41;;;;;;;4.35;2.75;;;;;;;38.27;30.88;100358.34;4899143;29;20059;-75
2022/07/29 01:55:14;;;;;;;5.55;2.90;;;;;;;38.24;30.96;100357.81;4890000;29;20527;-75
2022/07/29 01:57:46;;;;;;;3.63;2.75;;;;;;;38.22;29.84;100349.81;4894011;29;20059;-75
2022/07/29 02:00:18;;;;;;;5.72;2.85;;;;;;;38.17;31.46;100354.81;4899856;29;20047;-75
2022/07/29 02:02:49;;;;;;;4.18;2.65;;;;;;;38.16;30.57;100346.84;4900011;29;20056;-75
2022/07/29 02:05:22;;;;;;;6.57;2.90;;;;;;;38.09;32.63;100350.09;4887849;29;20097;-76
2022/07/29 02:07:53;;;;;;;5.82;3.25;;;;;;;38.02;32.56;100348.13;4894724;29;20506;-76
2022/07/29 02:10:26;;;;;;;6.67;3.40;;;;;;;37.93;31.62;100345.28;4893409;29;20556;-76
2022/07/29 02:12:57;;;;;;;5.13;2.80;;;;;;;37.88;32.15;100346.69;4885601;29;20494;-75
2022/07/29 02:15:30;;;;;;;8.25;3.22;;;;;;;37.84;33.84;100356.06;4892645;29;20056;-76
2022/07/29 02:18:03;;;;;;;6.32;2.75;;;;;;;37.74;33.04;100347.94;4902595;29;20494;-76
2022/07/29 02:20:33;;;;;;;9.00;3.03;;;;;;;37.64;34.13;100353.34;4882043;29;20052;-75
2022/07/29 02:23:04;;;;;;;5.10;2.67;;;;;;;37.55;33.76;100351.47;4888213;29;20274;-76
2022/07/29 02:25:40;;;;;;;4.57;2.85;;;;;;;37.44;34.30;100348.88;4893579;29;20124;-76
2022/07/29 02:28:10;;;;;;;6.63;2.72;;;;;;;37.35;33.80;100353.25;4884914;29;20056;-79
2022/07/29 02:30:44;;;;;;;4.13;2.80;;;;;;;37.25;35.28;100357.78;4893515;29;20546;-76
2022/07/29 02:33:16;;;;;;;6.82;3.05;;;;;;;37.14;35.52;100352.47;4892007;29;20053;-76
2022/07/29 02:35:46;;;;;;;5.43;3.03;;;;;;;37.02;35.78;100354.34;4894345;29;20055;-77
2022/07/29 02:41:05;;;;;;;4.38;2.90;;;;;;;36.80;35.45;100363.50;4893725;29;20052;-76
2022/07/29 02:43:35;;;;;;;6.70;3.10;;;;;;;36.72;36.28;100358.78;4889691;29;20052;-76
2022/07/29 02:46:10;;;;;;;7.53;3.55;;;;;;;36.60;36.72;100352.59;4893578;29;20061;-75
2022/07/29 02:48:43;;;;;;;5.85;3.10;;;;;;;36.49;37.14;100363.41;4888760;29;20048;-77
2022/07/29 02:51:20;;;;;;;3.90;2.53;;;;;;;36.39;36.11;100371.44;4892590;29;20055;-76
2022/07/29 02:53:52;;;;;;;7.22;2.78;;;;;;;36.29;36.20;100367.81;4895935;29;20580;-76
2022/07/29 02:56:27;;;;;;;5.65;2.78;;;;;;;36.19;37.44;100361.50;4885162;29;20063;-76
2022/07/29 02:58:58;;;;;;;8.68;3.30;;;;;;;36.08;37.84;100368.63;4887858;29;20163;-75
2022/07/29 03:01:31;;;;;;;;;;;;;;;35.97;38.26;100373.22;4885587;29;20563;-77
2022/07/29 03:04:04;;;;;;;6.32;3.45;;;;;;;35.88;38.03;100374.81;4888009;29;20441;-78
2022/07/29 03:06:37;;;;;;;5.47;3.10;;;;;;;35.77;38.37;100366.78;4891107;29;20057;-75
2022/07/29 03:09:06;;;;;;;8.10;3.28;;;;;;;35.65;38.40;100364.13;4880154;29;20053;-76
2022/07/29 03:11:35;;;;;;;3.30;3.00;;;;;;;35.56;39.03;100375.59;4889474;29;20124;-78
2022/07/29 03:14:06;;;;;;;4.43;3.15;;;;;;;35.47;38.93;100376.34;4883905;29;20052;-76
2022/07/29 03:16:37;;;;;;;4.70;3.10;;;;;;;35.36;38.92;100379.91;4882878;29;20598;-76
2022/07/29 03:19:06;;;;;;;5.72;3.22;;;;;;;35.26;39.50;100370.88;4884970;29;20155;-74
2022/07/29 03:21:36;;;;;;;7.30;3.17;;;;;;;35.17;39.76;100385.06;4888889;29;20425;-76
2022/07/29 03:24:04;;;;;;;5.95;3.13;;;;;;;35.08;39.83;100383.06;4891843;29;20103;-75
2022/07/29 03:26:33;;;;;;;5.22;3.08;;;;;;;34.98;40.25;100385.63;4887040;29;20507;-76
2022/07/29 03:29:02;;;;;;;5.75;3.40;;;;;;;34.87;39.94;100394.53;4888621;29;20059;-78
2022/07/29 03:31:30;;;;;;;3.85;3.20;;;;;;;34.78;40.21;100390.75;4886127;29;20053;-78
2022/07/29 03:34:00;;;;;;;3.15;2.85;;;;;;;34.66;40.42;100390.81;4890284;29;20048;-78
2022/07/29 03:36:29;;;;;;;5.90;3.50;;;;;;;34.58;41.26;100388.72;4897701;29;20119;-79
2022/07/29 03:38:58;;;;;;;5.20;3.20;;;;;;;34.48;41.25;100393.09;4900500;29;20071;-78
2022/07/29 03:41:27;;;;;;;3.50;3.20;;;;;;;34.37;41.92;100396.59;4889055;29;20563;-77
2022/07/29 03:43:57;;;;;;;4.80;3.60;;;;;;;34.25;41.68;100401.06;4890545;29;20045;-74
2022/07/29 03:46:28;;;;;;;5.32;3.15;;;;;;;34.15;42.05;100402.72;4893258;29;20057;-79
2022/07/29 03:49:08;;;;;;;5.00;3.25;;;;;;;34.04;42.55;100394.56;4892730;29;20676;-77
2022/07/29 03:51:40;;;;;;;6.22;3.25;;;;;;;33.93;43.21;100398.94;4902777;29;20076;-77
2022/07/29 03:54:09;;;;;;;7.82;3.38;;;;;;;33.82;43.10;100401.56;4887616;29;20052;-81
2022/07/29 03:56:41;;;;;;;4.65;3.20;;;;;;;33.73;43.13;100402.22;4889421;29;20127;-80
2022/07/29 03:59:12;;;;;;;4.43;3.35;;;;;;;33.63;44.29;100401.16;4886293;29;20053;-76
2022/07/29 04:01:41;;;;;;;6.22;3.40;;;;;;;33.53;43.99;100396.44;4884427;29;20057;-75
2022/07/29 04:04:11;;;;;;;5.88;3.10;;;;;;;33.43;44.27;100403.44;4891454;29;20452;-76
2022/07/29 04:06:41;;;;;;;5.72;3.70;;;;;;;33.32;44.70;100398.84;4893336;29;20052;-76
2022/07/29 04:09:11;;;;;;;7.40;3.05;;;;;;;33.23;45.00;100402.19;4890365;29;20132;-77
2022/07/29 04:11:40;;;;;;;6.95;3.58;;;;;;;33.12;45.47;100394.94;4889360;29;20048;-76
2022/07/29 04:14:09;;;;;;;3.72;3.20;;;;;;;33.00;44.73;100395.75;4893348;29;20127;-77
2022/07/29 04:16:37;;;;;;;4.80;3.30;;;;;;;32.90;46.44;100405.41;4887320;29;20052;-76
2022/07/29 04:19:06;;;;;;;6.00;3.17;;;;;;;32.81;47.65;100406.03;4886555;29;20475;-77
2022/07/29 04:21:41;;;;;;;4.50;3.05;;;;;;;32.69;48.30;100399.72;4889866;29;20065;-77
2022/07/29 04:24:09;;;;;;;4.18;3.03;;;;;;;32.59;49.14;100399.47;4891711;29;20056;-76
2022/07/29 04:26:44;;;;;;;4.35;3.10;;;;;;;32.49;48.55;100403.72;4887516;28;20123;-75
2022/07/29 04:29:20;;;;;;;3.80;3.13;;;;;;;32.38;48.86;100404.44;4892144;29;20044;-77
2022/07/29 04:31:48;;;;;;;6.00;2.92;;;;;;;32.27;48.98;100402.47;4897090;29;20048;-74
2022/07/29 04:34:17;;;;;;;5.05;3.30;;;;;;;32.19;48.06;100412.84;4886990;29;20053;-74
2022/07/29 04:36:47;;;;;;;5.05;3.08;;;;;;;32.11;47.82;100416.00;4889590;29;20500;-75
2022/07/29 04:39:17;;;;;;;3.92;2.92;;;;;;;32.02;48.90;100416.63;4886183;29;20499;-74
2022/07/29 04:41:47;;;;;;;6.18;2.88;;;;;;;31.94;49.92;100416.25;4889958;29;20052;-75
2022/07/29 04:44:15;;;;;;;5.07;3.72;;;;;;;31.77;51.17;100422.69;4888342;29;20063;-75
2022/07/29 04:46:43;;;;;;;5.88;3.50;;;;;;;31.59;50.44;100430.09;4893319;29;20044;-76
2022/07/29 04:49:12;;;;;;;6.20;3.70;;;;;;;31.46;50.71;100434.50;4889716;29;20113;-76
2022/07/29 04:51:41;;;;;;;5.13;3.38;;;;;;;31.39;51.12;100422.44;4890014;29;21047;-76
2022/07/29 04:54:11;;;;;;;4.88;3.38;;;;;;;31.34;50.97;100429.84;4885907;29;20056;-75
2022/07/29 04:56:40;;;;;;;6.25;4.70;;;;;;;31.28;50.82;100440.00;4889645;29;20061;-75
2022/07/29 04:59:08;;;;;;;5.95;3.22;;;;;;;31.21;51.14;100432.47;4891917;29;20120;-74
2022/07/29 05:01:37;;;;;;;6.95;3.80;;;;;;;31.16;50.76;100431.88;4899875;29;20052;-75
2022/07/29 05:04:05;;;;;;;4.93;3.45;;;;;;;31.09;50.08;100445.63;4890598;29;20044;-75
2022/07/29 05:06:34;;;;;;;5.28;3.15;;;;;;;31.05;50.36;100444.06;4885422;29;20650;-74
2022/07/29 05:09:02;;;;;;;5.43;3.05;;;;;;;31.01;50.27;100450.56;4890014;29;20049;-74
2022/07/29 05:11:33;;;;;;;5.15;3.20;;;;;;;30.96;51.23;100441.97;4891876;29;20053;-75
2022/07/29 05:14:01;;;;;;;4.22;3.30;;;;;;;30.91;52.48;100446.75;4889991;29;20642;-75
2022/07/29 05:16:30;;;;;;;4.43;3.03;;;;;;;30.83;52.46;100447.19;4893525;29;20450;-75
2022/07/29 05:18:58;;;;;;;5.05;3.25;;;;;;;30.72;52.04;100456.75;4889442;29;20053;-76
2022/07/29 05:21:27;;;;;;;4.25;3.00;;;;;;;30.64;51.79;100452.72;4884559;29;20049;-74
2022/07/29 05:23:55;;;;;;;3.53;3.22;;;;;;;30.52;51.68;100444.59;4884810;29;20052;-74
2022/07/29 05:26:24;;;;;;;5.07;2.50;;;;;;;30.50;48.47;100449.19;4886940;29;20522;-76
2022/07/29 05:28:54;;;;;;;4.75;2.90;;;;;;;30.50;52.54;100451.84;4889658;29;20040;-76
2022/07/29 05:31:23;;;;;;;4.18;2.70;;;;;;;30.46;50.90;100448.47;4887364;29;20073;-75
2022/07/29 05:33:51;;;;;;;3.70;2.75;;;;;;;30.43;49.27;100454.00;4887190;29;20056;-76
2022/07/29 05:36:20;;;;;;;4.13;3.28;;;;;;;30.35;48.82;100440.22;4898457;29;20759;-76
2022/07/29 05:38:48;;;;;;;4.20;3.13;;;;;;;30.41;50.62;100455.91;4891772;29;20064;-76
2022/07/29 05:41:17;;;;;;;6.07;2.80;;;;;;;30.37;50.35;100455.22;4895427;29;20057;-76
2022/07/29 05:43:45;;;;;;;4.53;2.95;;;;;;;30.36;51.11;100455.31;4891160;29;20064;-76
2022/07/29 05:46:15;;;;;;;8.30;2.95;;;;;;;30.33;51.16;100463.47;4892049;29;20059;-77
2022/07/29 05:48:44;;;;;;;4.43;3.50;;;;;;;30.31;51.94;100460.06;4895924;29;20487;-77
2022/07/29 05:51:12;;;;;;;4.38;2.92;;;;;;;30.27;50.35;100462.91;4895042;29;20060;-77
2022/07/29 05:53:41;;;;;;;4.70;2.58;;;;;;;30.24;50.50;100465.72;4894053;29;20052;-77
2022/07/29 05:56:09;;;;;;;5.05;3.22;;;;;;;30.25;51.02;100469.25;4901198;29;20045;-77
2022/07/29 05:58:38;;;;;;;3.42;2.95;;;;;;;30.23;52.73;100458.63;4890135;29;20057;-77
2022/07/29 06:01:06;;;;;;;5.95;3.50;;;;;;;30.19;52.40;100461.56;4891572;29;20059;-77
2022/07/29 06:03:37;;;;;;;4.03;2.92;;;;;;;30.13;51.63;100465.47;4892741;29;20045;-76
2022/07/29 06:06:07;;;;;;;4.13;3.38;;;;;;;30.06;51.61;100466.75;4892464;29;20048;-77
2022/07/29 06:08:36;;;;;;;5.07;2.95;;;;;;;30.02;51.90;100466.06;4893694;29;20056;-78
2022/07/29 06:11:05;;;;;;;8.18;3.22;;;;;;;29.99;53.37;100460.06;4893149;29;20056;-76
2022/07/29 06:13:34;;;;;;;4.55;2.75;;;;;;;29.94;52.89;100462.09;4890640;29;20044;-77
2022/07/29 06:16:02;;;;;;;3.42;2.83;;;;;;;29.91;52.23;100462.28;4883888;29;20073;-76
2022/07/29 06:18:31;;;;;;;6.05;2.97;;;;;;;29.88;52.64;100467.78;4891647;29;20061;-76
2022/07/29 06:21:01;;;;;;;3.13;2.40;;;;;;;29.83;50.50;100474.25;4897661;29;20052;-76
2022/07/29 06:23:30;;;;;;;3.50;3.20;;;;;;;29.81;50.49;100473.47;4895328;29;20731;-77
2022/07/29 06:25:58;;;;;;;2.75;2.35;;;;;;;29.80;50.57;100481.53;4888242;29;20423;-76
2022/07/29 06:28:27;;;;;;;2.90;2.35;;;;;;;29.78;50.39;100478.97;4893148;28;20124;-75
2022/07/29 06:30:56;;;;;;;3.67;2.55;;;;;;;29.77;50.48;100482.56;4892654;29;20488;-77
2022/07/29 06:33:24;;;;;;;5.65;3.22;;;;;;;29.78;50.64;100483.41;4893461;29;20067;-77
2022/07/29 06:35:53;;;;;;;5.03;3.05;;;;;;;29.69;53.06;100474.16;4897130;29;20048;-77
2022/07/29 06:38:23;;;;;;;4.60;3.00;;;;;;;29.74;51.46;100482.75;4904701;29;20109;-76
2022/07/29 06:41:05;;;;;;;6.18;3.00;;;;;;;29.71;51.07;100490.03;4885852;29;20048;-77
2022/07/29 06:43:37;;;;;;;4.07;2.92;;;;;;;29.67;51.47;100489.34;4892119;29;20056;-77
2022/07/29 06:46:07;;;;;;;3.67;2.97;;;;;;;29.63;52.32;100485.97;4890842;29;20060;-77
2022/07/29 06:48:36;;;;;;;3.13;2.72;;;;;;;29.59;53.68;100486.22;4893838;29;20048;-76
2022/07/29 06:51:06;;;;;;;4.28;2.88;;;;;;;29.55;52.31;100492.63;4890813;29;20080;-76
2022/07/29 06:53:37;;;;;;;3.47;2.67;;;;;;;29.51;52.77;100491.09;4894236;29;20045;-77
2022/07/29 06:56:08;;;;;;;5.67;2.93;;;;;;;29.46;54.27;100486.03;4890126;29;20079;-77
2022/07/29 06:58:37;;;;;;;4.47;2.50;;;;;;;29.38;54.19;100490.88;4890759;29;20794;-76
2022/07/29 07:01:06;;;;;;;4.35;2.95;;;;;;;29.33;53.56;100485.81;4893983;29;20044;-77
2022/07/29 07:03:35;;;;;;;3.28;2.60;;;;;;;29.23;54.31;100487.25;4898432;29;20064;-77
2022/07/29 07:06:04;;;;;;;4.50;2.80;;;;;;;29.20;54.62;100495.38;4900561;29;20578;-76
2022/07/29 07:08:32;;;;;;;3.83;2.60;;;;;;;29.10;54.80;100496.81;4889836;29;20060;-75
2022/07/29 07:11:03;;;;;;;4.75;2.55;;;;;;;29.00;54.31;100491.03;4886025;29;20056;-76
2022/07/29 07:13:34;;;;;;;6.35;2.83;;;;;;;28.94;55.12;100491.38;4899422;29;20048;-76
2022/07/29 07:16:03;;;;;;;6.88;2.63;;;;;;;28.89;55.45;100507.59;4894806;29;20049;-76
2022/07/29 07:18:32;;;;;;;3.50;2.60;;;;;;;28.83;55.25;100507.91;4895687;29;20108;-77
2022/07/29 07:21:00;;;;;;;5.72;2.90;;;;;;;28.76;55.42;100509.16;4894588;29;20048;-77
2022/07/29 07:23:29;;;;;;;3.90;2.90;;;;;;;28.72;55.42;100507.56;4892231;29;20059;-76
2022/07/29 07:25:57;;;;;;;6.88;3.45;;;;;;;28.67;56.15;100514.94;4892795;29;20045;-76
2022/07/29 07:28:27;;;;;;;5.32;2.95;;;;;;;28.60;57.02;100514.38;4893529;29;20165;-77
2022/07/29 07:30:56;;;;;;;4.68;2.88;;;;;;;28.53;57.44;100513.81;4886994;29;20634;-76
2022/07/29 07:33:24;;;;;;;5.97;3.28;;;;;;;28.48;57.62;100518.50;4893670;29;20056;-76
2022/07/29 07:35:53;;;;;;;6.35;2.55;;;;;;;28.43;57.20;100517.84;4893168;29;20048;-77
2022/07/29 07:38:22;;;;;;;5.30;2.90;;;;;;;28.34;56.90;100518.28;4893004;29;20056;-76
2022/07/29 07:40:50;;;;;;;4.82;2.47;;;;;;;28.28;56.74;100515.91;4889854;29;20047;-75
2022/07/29 07:43:19;;;;;;;3.58;2.17;;;;;;;28.19;56.85;100519.88;4896242;29;20081;-77
2022/07/29 07:45:49;;;;;;;4.45;2.10;;;;;;;28.07;56.73;100523.97;4889980;29;20491;-76
2022/07/29 07:48:17;;;;;;;6.13;2.10;;;;;;;27.99;56.87;100516.38;4893917;29;20510;-75
2022/07/29 07:50:53;;;;;;;5.35;2.20;;;;;;;27.89;57.24;100514.19;4888951;29;20108;-76
2022/07/29 07:53:29;;;;;;;4.20;2.08;;;;;;;27.79;57.50;100517.25;4890000;29;20064;-76
2022/07/29 07:55:58;;;;;;;6.57;2.42;;;;;;;27.73;57.69;100522.84;4887392;29;20651;-76
2022/07/29 07:58:26;;;;;;;4.60;1.75;;;;;;;27.69;57.96;100520.41;4891771;29;20112;-76
2022/07/29 08:00:56;;;;;;;2.95;2.10;;;;;;;27.63;58.44;100523.34;4891140;29;20089;-76
2022/07/29 08:03:25;;;;;;;7.38;2.25;;;;;;;27.55;58.35;100511.25;4896836;29;20056;-77
2022/07/29 08:05:54;;;;;;;7.90;2.55;;;;;;;27.51;58.90;100528.28;4888596;29;20053;-77
2022/07/29 08:08:22;;;;;;;3.97;2.08;;;;;;;27.40;60.68;100527.00;4900867;29;20052;-76
2022/07/29 08:10:55;;;;;;;3.63;2.60;;;;;;;27.31;60.42;100521.19;4896051;29;20052;-76
2022/07/29 08:13:25;;;;;;;4.75;2.50;;;;;;;27.16;61.04;100525.31;4888970;29;20345;-75
2022/07/29 08:15:59;;;;;;;4.75;2.35;;;;;;;27.05;62.45;100524.06;4884674;29;20045;-76
2022/07/29 08:18:31;;;;;;;5.63;2.53;;;;;;;26.91;62.31;100527.31;4887890;29;20139;-75
2022/07/29 08:20:59;;;;;;;;;;;;;;;26.82;62.43;100519.72;4892176;29;20071;-76
2022/07/29 08:23:34;;;;;;;3.88;2.40;;;;;;;26.72;62.78;100516.59;4892225;29;20006;-77
2022/07/29 08:26:03;;;;;;;3.92;2.83;;;;;;;26.54;64.82;100516.41;4890109;29;20056;-77
2022/07/29 08:28:31;;;;;;;4.05;2.50;;;;;;;26.39;64.23;100519.66;4892561;29;20529;-76
2022/07/29 08:31:00;;;;;;;5.85;2.30;;;;;;;26.27;64.35;100514.84;4893702;29;20052;-77
2022/07/29 08:33:30;;;;;;;3.65;2.08;;;;;;;26.14;63.41;100511.81;4890974;29;20056;-76
2022/07/29 08:35:58;;;;;;;4.10;2.30;;;;;;;26.10;63.78;100524.31;4892130;29;20094;-77
2022/07/29 08:38:27;;;;;;;8.13;2.42;;;;;;;26.07;63.86;100524.44;4891481;29;20061;-77
2022/07/29 08:40:56;;;;;;;2.97;2.00;;;;;;;26.01;64.34;100514.06;4892778;29;20510;-77
2022/07/29 08:43:25;;;;;;;3.25;1.98;;;;;;;25.91;64.61;100518.88;4887543;29;20156;-77
2022/07/29 08:45:54;;;;;;;5.38;2.63;;;;;;;25.84;64.86;100516.47;4887720;29;20107;-76
2022/07/29 08:48:24;;;;;;;3.45;2.08;;;;;;;25.74;64.84;100507.13;4891873;29;20060;-77
2022/07/29 08:50:57;;;;;;;5.05;2.10;;;;;;;25.82;64.86;100528.94;4888408;29;20567;-77
2022/07/29 08:53:28;;;;;;;3.63;1.90;;;;;;;25.81;65.76;100530.69;4890043;29;20749;-76
2022/07/29 08:55:57;;;;;;;4.63;2.17;;;;;;;25.78;65.54;100525.50;4891312;29;20057;-77
2022/07/29 08:58:27;;;;;;;6.25;2.17;;;;;;;25.77;66.16;100530.84;4891110;29;20079;-77
2022/07/29 09:00:56;;;;;;;5.03;2.13;;;;;;;25.74;66.01;100536.28;4890292;29;20052;-77
2022/07/29 09:03:27;;;;;;;6.82;2.35;;;;;;;25.74;65.18;100536.28;4892450;29;20052;-77
2022/07/29 09:05:57;;;;;;;4.07;2.42;;;;;;;25.72;65.76;100531.03;4890805;29;20053;-77
2022/07/29 09:08:26;;;;;;;4.00;2.30;;;;;;;25.68;66.88;100526.78;4896868;29;20620;-76
2022/07/29 09:10:55;;;;;;;4.05;1.95;;;;;;;25.64;67.26;100535.75;4895768;29;20578;-77
2022/07/29 09:13:24;;;;;;;3.78;2.40;;;;;;;25.52;67.08;100545.03;4897680;29;20451;-77
2022/07/29 09:15:53;;;;;;;5.10;2.60;;;;;;;25.42;67.59;100536.53;4892218;29;20055;-76
2022/07/29 09:18:36;;;;;;;5.05;2.17;;;;;;;25.36;68.03;100542.06;4894524;29;20140;-77
2022/07/29 09:24:06;;;;;;;3.70;2.22;;;;;;;25.19;68.13;100528.53;4896076;29;20055;-77
2022/07/29 09:26:36;;;;;;;4.57;2.13;;;;;;;25.18;68.40;100543.56;4892334;29;20059;-76
2022/07/29 09:29:11;;;;;;;6.32;2.58;;;;;;;25.10;68.34;100545.56;4895796;29;20060;-75
2022/07/29 09:31:42;;;;;;;4.28;2.53;;;;;;;25.07;67.79;100550.97;4892900;29;20515;-77
2022/07/29 09:34:13;;;;;;;4.40;2.10;;;;;;;25.00;68.57;100552.09;4890291;29;20040;-77
2022/07/29 09:36:45;;;;;;;7.10;2.70;;;;;;;24.92;68.50;100548.81;4894177;29;20111;-77
2022/07/29 09:39:14;;;;;;;6.90;2.20;;;;;;;24.87;68.98;100549.84;4892986;29;20053;-77
2022/07/29 09:41:48;;;;;;;5.57;3.00;;;;;;;24.77;69.70;100542.28;4893941;29;20123;-77
2022/07/29 09:44:17;;;;;;;4.97;2.10;;;;;;;24.76;69.84;100552.00;4892291;29;20064;-77
2022/07/29 09:47:02;;;;;;;5.10;2.28;;;;;;;24.73;70.54;100557.38;4896175;29;20052;-77
2022/07/29 09:49:30;;;;;;;3.10;2.00;;;;;;;24.70;70.95;100557.47;4891155;29;20052;-77
2022/07/29 09:52:06;;;;;;;4.88;2.35;;;;;;;24.70;70.63;100556.63;4891143;29;20534;-75
2022/07/29 09:54:38;;;;;;;3.47;2.47;;;;;;;24.64;71.89;100562.94;4891263;29;20084;-77
2022/07/29 09:57:08;;;;;;;6.70;2.40;;;;;;;24.54;72.52;100557.09;4893511;29;20550;-76
2022/07/29 09:59:38;;;;;;;2.85;2.55;;;;;;;24.51;72.23;100564.25;4894720;29;20507;-76
2022/07/29 10:02:14;;;;;;;5.10;2.58;;;;;;;24.46;72.34;100559.06;4890947;29;20049;-75
2022/07/29 10:04:43;;;;;;;7.20;2.60;;;;;;;24.42;72.38;100560.97;4895717;29;20057;-75
2022/07/29 10:07:14;;;;;;;2.40;2.10;;;;;;;24.38;72.55;100556.69;4883624;29;20479;-76
2022/07/29 10:09:54;;;;;;;5.35;2.55;;;;;;;24.35;72.77;100558.53;4888830;29;20049;-76
2022/07/29 10:12:23;;;;;;;4.50;2.80;;;;;;;24.30;72.51;100563.09;4890815;29;20546;-76
2022/07/29 10:14:52;;;;;;;4.00;2.42;;;;;;;24.24;72.96;100559.75;4895640;29;20100;-75
2022/07/29 10:17:21;;;;;;;7.97;2.58;;;;;;;24.21;73.03;100564.25;4895644;29;20095;-76
2022/07/29 10:19:51;;;;;;;4.85;2.58;;;;;;;24.15;72.17;100565.31;4897377;29;20044;-76
2022/07/29 10:22:21;;;;;;;3.22;2.63;;;;;;;24.10;71.91;100567.22;4894832;29;20120;-76
2022/07/29 10:24:50;;;;;;;4.35;2.60;;;;;;;24.06;73.48;100564.72;4889163;29;20064;-76
2022/07/29 10:27:19;;;;;;;5.82;2.95;;;;;;;24.01;72.65;100562.22;4887729;28;20056;-76
2022/07/29 10:29:47;;;;;;;3.33;2.47;;;;;;;23.97;72.90;100569.34;4893091;29;20108;-76
2022/07/29 10:32:38;;;;;;;4.75;2.47;;;;;;;23.81;74.96;100552.22;4885545;29;20121;-76
2022/07/29 10:35:22;;;;;;;3.95;2.15;;;;;;;23.79;75.47;100562.81;4892506;29;20060;-76
2022/07/29 10:38:39;;;;;;;4.30;2.60;;;;;;;23.75;75.63;100562.94;4901724;29;20059;-76
2022/07/29 10:41:29;;;;;;;7.82;2.75;;;;;;;23.69;76.46;100569.25;4890554;29;20059;-76
2022/07/29 10:44:02;;;;;;;5.22;2.47;;;;;;;23.63;76.40;100557.06;4888626;29;20078;-75
2022/07/29 10:46:36;;;;;;;5.32;2.75;;;;;;;23.61;76.63;100569.44;4893911;29;20120;-76
2022/07/29 10:49:12;;;;;;;5.53;2.20;;;;;;;23.58;75.73;100568.66;4894243;29;20044;-77
2022/07/29 10:52:01;;;;;;;6.22;2.65;;;;;;;23.49;76.72;100582.97;4890359;29;20061;-76
2022/07/29 10:54:49;;;;;;;7.65;2.90;;;;;;;23.46;77.90;100576.94;4890135;29;20137;-76
2022/07/29 10:57:27;;;;;;;8.13;2.58;;;;;;;23.41;76.57;100582.34;4889941;29;20063;-77
2022/07/29 11:00:30;;;;;;;6.35;2.80;;;;;;;23.33;79.03;100589.56;4886440;29;20048;-77
2022/07/29 11:02:59;;;;;;;5.72;2.72;;;;;;;23.24;79.70;100584.53;4885240;29;20125;-75
2022/07/29 11:05:31;;;;;;;5.43;2.90;;;;;;;23.21;79.73;100588.97;4891670;29;20590;-76
2022/07/29 11:08:23;;;;;;;3.75;3.03;;;;;;;23.19;79.73;100588.16;4889931;29;20439;-76
2022/07/29 11:11:14;;;;;;;5.25;3.10;;;;;;;23.18;79.44;100586.44;4894608;29;20075;-76
2022/07/29 11:13:51;;;;;;;5.35;2.95;;;;;;;23.15;79.45;100591.75;4895302;29;20060;-76
2022/07/29 11:16:22;;;;;;;3.42;2.80;;;;;;;23.13;80.12;100590.06;4894105;29;20150;-77
2022/07/29 11:19:22;;;;;;;4.47;2.53;;;;;;;23.12;80.35;100602.41;4890028;29;20145;-76
2022/07/29 11:21:52;;;;;;;5.18;2.80;;;;;;;23.13;79.87;100598.00;4883898;29;20565;-77
2022/07/29 11:24:23;;;;;;;3.00;2.50;;;;;;;23.13;80.08;100606.78;4897222;29;20136;-77
2022/07/29 11:27:39;;;;;;;7.80;2.75;;;;;;;23.13;79.81;100608.56;4893530;29;20502;-77
2022/07/29 11:30:09;;;;;;;3.72;2.60;;;;;;;23.10;79.88;100609.50;4813301;29;20086;-78
2022/07/29 11:32:39;;;;;;;10.27;2.70;;;;;;;23.08;79.77;100613.09;4809107;29;20123;-77
2022/07/29 11:35:17;;;;;;;3.53;2.72;;;;;;;23.05;79.99;100605.25;4828311;29;20049;-76
2022/07/29 11:37:45;;;;;;;4.25;3.10;;;;;;;23.02;80.64;100607.94;4841725;29;20057;-76
2022/07/29 11:40:16;;;;;;;4.68;2.65;;;;;;;22.98;80.28;100609.78;4851264;29;20116;-77
2022/07/29 11:42:48;;;;;;;6.30;2.65;;;;;;;22.96;80.06;100608.94;4856693;29;20057;-77
2022/07/29 11:45:19;;;;;;;4.10;3.10;;;;;;;22.92;80.55;100608.13;4855047;29;20053;-77
2022/07/29 11:47:53;;;;;;;4.83;2.73;;;;;;;22.87;80.40;100599.47;4857981;29;20548;-77
2022/07/29 11:50:34;;;;;;;3.33;2.60;;;;;;;22.85;80.56;100605.69;4847447;29;20526;-77
2022/07/29 11:53:04;;;;;;;5.55;2.85;;;;;;;22.80;80.96;100611.94;4860717;29;20049;-77